»·PEaware :: SCX258 KSFO-KPSP

SCX258 :: KSFO-KPSP

FLIGHT INFORMATION

Flight Status: Arrived
Operator:
Sun Country Airlines
More flights by this operator :: More flights under this callsign
Pilot: Brad M. (22842)
Aircraft: BOEING 737-800
(B738)
More flights by this aircraft type
Origin: KSFO San Francisco Intl
United States
Destination: KPSP Palm Springs Intl
United States
More flights between these airports :: More routes between these airports
Route: +SSTIK4 LOSHN CLASN SIZLR3
File this flight plan on PilotEdge
Remarks:
Altitude:
(Current/Filed)
35,000ft
Speed:
(Current/Filed)
472kts
Departed: 26-Mar-20 04:30 PM
Arrived: 26-Mar-20 05:36 PM
Distance/Time
Traveled:
365nm/1:05
Distance/Time
To Go:
Arrived

Flight Plot

Page will automatically refresh every two minutes.

Flight plan parsing failed; only flown route is shown


Map Options




Map Legend


Flown Route
Filed Route
Departure Airport
Arrival Airport
Navaid (VOR, NDB)
Fix

Horizontal Profiles

Position Reports

Time Latitude Longitude Heading Altitude Ground
Speed
26-Mar-20 15:59 37.611285 -122.390334 42 21ft 0kts
26-Mar-20 16:00 37.611285 -122.390334 42 21ft 0kts
26-Mar-20 16:01 37.611285 -122.390334 42 21ft 0kts
26-Mar-20 16:02 37.611285 -122.390334 42 21ft 0kts
26-Mar-20 16:03 37.611285 -122.390334 42 21ft 0kts
26-Mar-20 16:04 37.611285 -122.390334 42 21ft 0kts
26-Mar-20 16:05 37.611285 -122.390334 42 21ft 0kts
26-Mar-20 16:06 37.611285 -122.390334 42 21ft 0kts
26-Mar-20 16:07 37.611285 -122.390334 42 21ft 0kts
26-Mar-20 16:08 37.611285 -122.390334 42 21ft 0kts
26-Mar-20 16:09 37.611285 -122.390334 42 21ft 0kts
26-Mar-20 16:10 37.611285 -122.390334 42 21ft 0kts
26-Mar-20 16:11 37.611285 -122.390334 42 21ft 0kts
26-Mar-20 16:12 37.611285 -122.390334 42 21ft 0kts
26-Mar-20 16:13 37.611285 -122.390334 42 21ft 0kts
26-Mar-20 16:14 37.611285 -122.390334 42 21ft 0kts
26-Mar-20 16:15 37.611285 -122.390334 42 21ft 0kts
26-Mar-20 16:16 37.611072 -122.390597 49 21ft 2kts
26-Mar-20 16:17 37.611004 -122.391370 129 21ft 2kts
26-Mar-20 16:18 37.611029 -122.391408 129 21ft 0kts
26-Mar-20 16:19 37.611029 -122.391408 129 21ft 0kts
26-Mar-20 16:20 37.610504 -122.390599 129 21ft 8kts
26-Mar-20 16:21 37.611025 -122.388510 46 21ft 7kts
26-Mar-20 16:22 37.610565 -122.386605 117 21ft 6kts
26-Mar-20 16:23 37.610022 -122.385276 117 21ft 0kts
26-Mar-20 16:24 37.609040 -122.384818 194 21ft 8kts
26-Mar-20 16:25 37.606215 -122.384002 129 21ft 9kts
26-Mar-20 16:26 37.606810 -122.381828 111 21ft 0kts
26-Mar-20 16:27 37.606805 -122.381812 111 21ft 0kts
26-Mar-20 16:28 37.606780 -122.381735 112 21ft 0kts
26-Mar-20 16:29 37.610141 -122.378477 26 21ft 94kts
26-Mar-20 16:30 37.649508 -122.355498 358 2105ft 164kts
26-Mar-20 16:31 37.698596 -122.380205 300 4044ft 229kts
26-Mar-20 16:32 37.663764 -122.439572 187 7101ft 282kts
26-Mar-20 16:33 37.583195 -122.452608 191 10348ft 300kts
26-Mar-20 16:34 37.492972 -122.465580 166 12088ft 364kts
26-Mar-20 16:35 37.418214 -122.377612 120 14169ft 391kts
26-Mar-20 16:36 37.353229 -122.264631 125 16760ft 406kts
26-Mar-20 16:37 37.281107 -122.152385 125 18924ft 421kts
26-Mar-20 16:38 37.206085 -122.035767 124 20795ft 437kts
26-Mar-20 16:39 37.130120 -121.918861 124 23776ft 415kts
26-Mar-20 16:40 37.058485 -121.809186 125 26303ft 408kts
26-Mar-20 16:41 36.987201 -121.700446 126 28389ft 407kts
26-Mar-20 16:42 36.915216 -121.591000 127 30252ft 408kts
26-Mar-20 16:43 36.842864 -121.481337 128 31957ft 408kts
26-Mar-20 16:44 36.770466 -121.371974 130 33512ft 408kts
26-Mar-20 16:45 36.695142 -121.258578 130 33820ft 440kts
26-Mar-20 16:46 36.614945 -121.137806 131 34132ft 466kts
26-Mar-20 16:47 36.531618 -121.013576 131 35103ft 469kts
26-Mar-20 16:48 36.448393 -120.889385 132 35110ft 465kts
26-Mar-20 16:49 36.365529 -120.765835 132 35104ft 465kts
26-Mar-20 16:50 36.282515 -120.642500 133 35096ft 465kts
26-Mar-20 16:51 36.199994 -120.519208 133 35091ft 465kts
26-Mar-20 16:52 36.117007 -120.396255 133 35081ft 465kts
26-Mar-20 16:53 36.034246 -120.273811 134 35081ft 464kts
26-Mar-20 16:54 35.951562 -120.150826 130 35080ft 466kts
26-Mar-20 16:55 35.878456 -120.018108 128 35079ft 468kts
26-Mar-20 16:56 35.805644 -119.884944 128 35074ft 468kts
26-Mar-20 16:57 35.732982 -119.751970 128 35069ft 468kts
26-Mar-20 16:58 35.660425 -119.619038 128 35060ft 467kts
26-Mar-20 16:59 35.586532 -119.484728 129 35056ft 481kts
26-Mar-20 17:00 35.511735 -119.349393 129 35052ft 478kts
26-Mar-20 17:01 35.436844 -119.214433 130 35045ft 478kts
26-Mar-20 17:02 35.361981 -119.080046 130 35040ft 477kts
26-Mar-20 17:03 35.287051 -118.946049 130 35032ft 477kts
26-Mar-20 17:04 35.211885 -118.812143 131 35017ft 477kts
26-Mar-20 17:05 35.136775 -118.678847 131 34995ft 476kts
26-Mar-20 17:06 35.061654 -118.546034 131 34980ft 475kts
26-Mar-20 17:07 34.986276 -118.413263 132 34981ft 476kts
26-Mar-20 17:09 34.910782 -118.280786 132 34972ft 476kts
26-Mar-20 17:10 34.835140 -118.148521 132 34986ft 478kts
26-Mar-20 17:11 34.758607 -118.015238 133 34968ft 478kts
26-Mar-20 17:12 34.682848 -117.883751 134 34970ft 472kts
26-Mar-20 17:13 34.607286 -117.753225 134 34955ft 474kts
26-Mar-20 17:14 34.533425 -117.625887 135 32757ft 460kts
26-Mar-20 17:15 34.458506 -117.497219 137 29469ft 466kts
26-Mar-20 17:16 34.383099 -117.368321 136 25929ft 474kts
26-Mar-20 17:17 34.308893 -117.241797 136 23319ft 457kts
26-Mar-20 17:18 34.236453 -117.118788 134 20695ft 442kts
26-Mar-20 17:19 34.166655 -116.999237 132 18171ft 428kts
26-Mar-20 17:20 34.098818 -116.884835 132 15768ft 410kts
26-Mar-20 17:21 34.035519 -116.773751 122 14214ft 413kts
26-Mar-20 17:22 34.000265 -116.649919 110 13202ft 361kts
26-Mar-20 17:23 33.956591 -116.549540 132 11883ft 325kts
26-Mar-20 17:24 33.901037 -116.467944 132 10523ft 308kts
26-Mar-20 17:25 33.847464 -116.389592 132 9106ft 298kts
26-Mar-20 17:26 33.795869 -116.313727 127 7651ft 286kts
26-Mar-20 17:26 33.807528 -116.243759 26 6204ft 285kts
26-Mar-20 17:27 33.866031 -116.281476 288 5981ft 262kts
26-Mar-20 17:29 33.886864 -116.374054 282 6055ft 233kts
26-Mar-20 17:29 33.900760 -116.438834 282 6011ft 241kts
26-Mar-20 17:30 33.934484 -116.505799 317 5741ft 233kts
26-Mar-20 17:31 33.969016 -116.553960 255 5098ft 194kts
26-Mar-20 17:33 33.919588 -116.583392 165 3800ft 179kts
26-Mar-20 17:33 33.884265 -116.555659 149 2270ft 176kts
26-Mar-20 17:34 33.847572 -116.523453 148 854ft 155kts
26-Mar-20 17:35 33.825084 -116.503613 141 485ft 11kts
26-Mar-20 17:36 33.823205 -116.503583 267 485ft 0kts
26-Mar-20 17:37 33.823202 -116.503673 267 485ft 0kts
26-Mar-20 17:38 33.822507 -116.505132 233 485ft 6kts
26-Mar-20 17:39 33.822741 -116.505899 329 485ft 0kts
26-Mar-20 17:40 33.822741 -116.505899 329 485ft 0kts
26-Mar-20 17:41 33.822741 -116.505899 329 485ft 0kts
26-Mar-20 17:42 33.822741 -116.505899 329 485ft 0kts
26-Mar-20 17:43 33.822741 -116.505899 329 485ft 0kts
26-Mar-20 17:44 33.822741 -116.505899 329 485ft 0kts
26-Mar-20 17:45 33.822741 -116.505899 329 485ft 0kts
26-Mar-20 17:46 33.822741 -116.505899 329 485ft 0kts
26-Mar-20 17:47 33.822741 -116.505899 329 485ft 0kts

Navigation Log

Ident Type
Flight plan parsing failed, navigation log unavailable